createdAt,value
2022-08-05T00:06:29.499Z,25.00
2022-08-05T00:16:35.920Z,24.90
2022-08-05T00:26:39.085Z,24.80
2022-08-05T00:37:11.022Z,24.70
2022-08-05T00:47:26.321Z,24.50
2022-08-05T00:57:55.221Z,24.40
2022-08-05T01:08:41.465Z,24.40
2022-08-05T01:18:23.676Z,24.50
2022-08-05T01:28:51.756Z,24.50
2022-08-05T01:38:54.950Z,24.50
2022-08-05T01:48:59.223Z,24.60
2022-08-05T01:59:09.323Z,24.70
2022-08-05T02:09:11.124Z,24.70
2022-08-05T02:19:47.038Z,24.80
2022-08-05T02:29:58.955Z,25.10
2022-08-05T02:40:03.417Z,25.30
2022-08-05T02:50:07.828Z,25.40
2022-08-05T03:00:13.774Z,25.50
2022-08-05T03:10:24.465Z,25.50
2022-08-05T03:20:26.935Z,25.50
2022-08-05T03:30:34.149Z,25.50
2022-08-05T03:40:40.906Z,25.60
2022-08-05T03:50:50.337Z,25.60
2022-08-05T04:00:54.052Z,25.60
2022-08-05T04:10:57.073Z,25.60
2022-08-05T04:20:59.172Z,25.70
2022-08-05T04:31:02.242Z,25.60
2022-08-05T04:41:10.253Z,25.50
2022-08-05T04:51:12.532Z,25.40
2022-08-05T05:01:15.279Z,25.40
2022-08-05T05:11:48.531Z,25.60
2022-08-05T05:21:55.865Z,25.70
2022-08-05T05:31:57.507Z,25.80
2022-08-05T05:41:59.194Z,25.70
2022-08-05T05:52:06.057Z,25.80
2022-08-05T06:02:09.108Z,25.80
2022-08-05T06:12:12.161Z,25.80
2022-08-05T06:22:26.268Z,25.80
2022-08-05T06:32:29.164Z,25.80
2022-08-05T06:42:31.039Z,25.70
2022-08-05T06:52:36.989Z,25.80
2022-08-05T07:02:44.011Z,26.10
2022-08-05T07:13:09.333Z,26.10
2022-08-05T07:23:13.039Z,26.30
2022-08-05T07:33:35.040Z,26.40
2022-08-05T07:43:38.729Z,26.60
2022-08-05T07:53:50.007Z,26.80
2022-08-05T08:03:52.791Z,27.00
2022-08-05T08:14:00.723Z,26.70
2022-08-05T08:24:04.951Z,26.90
2022-08-05T08:34:07.842Z,27.00
2022-08-05T08:45:18.348Z,27.00
2022-08-05T08:54:36.221Z,27.00
2022-08-05T09:04:58.301Z,27.30
2022-08-05T09:15:06.602Z,27.70
2022-08-05T09:25:13.458Z,27.60
2022-08-05T09:35:26.340Z,27.90
2022-08-05T09:46:07.765Z,28.10
2022-08-05T09:56:03.912Z,28.30
2022-08-05T10:06:15.741Z,28.60
2022-08-05T10:16:33.753Z,28.70
2022-08-05T10:26:36.682Z,28.60
2022-08-05T10:36:51.254Z,28.70
2022-08-05T10:46:55.727Z,28.80
2022-08-05T10:56:58.455Z,29.10
2022-08-05T11:07:01.476Z,29.00
2022-08-05T11:18:09.533Z,29.10
2022-08-05T11:28:11.575Z,29.40
2022-08-05T11:38:30.913Z,29.50
2022-08-05T11:48:42.221Z,29.70
2022-08-05T11:58:52.810Z,29.70
2022-08-05T12:08:57.481Z,29.80
2022-08-05T12:19:00.353Z,29.70
2022-08-05T12:29:09.860Z,29.80
2022-08-05T12:39:19.149Z,29.60
2022-08-05T12:49:21.454Z,29.60
2022-08-05T13:00:08.959Z,29.60
2022-08-05T13:10:01.281Z,29.70
2022-08-05T13:20:06.626Z,29.80
2022-08-05T13:30:34.014Z,29.70
2022-08-05T13:40:49.811Z,29.90
2022-08-05T13:50:53.400Z,29.70
2022-08-05T14:00:56.497Z,29.40
2022-08-05T14:11:03.329Z,29.40
2022-08-05T14:22:07.385Z,29.40
2022-08-05T14:31:54.445Z,29.00
2022-08-05T14:53:25.387Z,28.20
2022-08-05T15:03:33.896Z,28.00
2022-08-05T15:13:46.110Z,28.00
2022-08-05T15:23:51.783Z,27.90
2022-08-05T15:34:05.980Z,27.80
2022-08-05T15:44:15.104Z,27.80
2022-08-05T15:54:17.744Z,27.90
2022-08-05T16:04:19.363Z,28.00
2022-08-05T16:14:21.767Z,28.00
2022-08-05T16:24:40.975Z,28.20
2022-08-05T16:34:45.894Z,28.10
2022-08-05T16:44:54.298Z,28.10
2022-08-05T16:54:58.771Z,27.90
2022-08-05T17:05:00.402Z,27.60
2022-08-05T17:15:02.055Z,27.20
2022-08-05T17:25:22.195Z,26.90
2022-08-05T17:35:27.068Z,26.80
2022-08-05T17:45:38.566Z,26.70
2022-08-05T17:55:40.474Z,26.60
2022-08-05T18:05:43.250Z,26.30
2022-08-05T18:15:55.225Z,25.90
2022-08-05T18:25:59.356Z,25.40
2022-08-05T18:36:05.097Z,25.00
2022-08-05T18:46:09.759Z,24.60
2022-08-05T18:56:13.809Z,24.40
2022-08-05T19:06:21.435Z,24.20
2022-08-05T19:16:28.616Z,24.10
2022-08-05T19:26:35.373Z,23.90
2022-08-05T19:36:57.739Z,23.70
2022-08-05T19:46:59.710Z,23.40
2022-08-05T19:57:08.658Z,23.00
2022-08-05T20:07:13.380Z,22.90
2022-08-05T20:17:16.231Z,22.70
2022-08-05T20:27:18.035Z,22.70
2022-08-05T20:38:06.557Z,22.70
2022-08-05T20:47:44.255Z,22.60
2022-08-05T20:57:48.440Z,22.50
2022-08-05T21:07:52.185Z,22.50
2022-08-05T21:17:54.139Z,22.40
2022-08-05T21:27:55.764Z,22.50
2022-08-05T21:37:59.011Z,22.50
2022-08-05T21:48:00.701Z,22.40
2022-08-05T21:58:02.637Z,22.30
2022-08-05T22:08:05.907Z,22.30
2022-08-05T22:18:25.559Z,22.20
2022-08-05T22:28:27.560Z,22.00
2022-08-05T22:38:29.344Z,22.00
2022-08-05T22:48:30.983Z,21.90
2022-08-05T22:58:33.533Z,21.80
2022-08-05T23:08:37.859Z,21.70
2022-08-05T23:18:41.192Z,21.70
2022-08-05T23:28:44.233Z,21.50
2022-08-05T23:38:45.923Z,21.40
2022-08-05T23:49:01.076Z,21.30
2022-08-05T23:59:03.708Z,21.20
